Time;durP1;ratioP1;P1;durP2;ratioP2;P2;SDS_P1;SDS_P2;PMS_P1;PMS_P2;Temp;Humidity;BMP_temperature;BMP_pressure;BME280_temperature;BME280_humidity;BME280_pressure;Samples;Min_cycle;Max_cycle;Signal;HPM_P1;HPM_P2
2022/02/14 00:00:11;;;;;;;2.20;2.00;;;;;;;;;;5035040;28;20213;-82
2022/02/14 00:02:39;;;;;;;2.88;2.22;;;;;;;;;;5035357;28;20206;-82
2022/02/14 00:05:07;;;;;;;2.75;2.55;;;;;;;;;;5035201;28;20629;-81
2022/02/14 00:07:34;;;;;;;2.22;2.03;;;;;;;;;;5035370;28;20213;-81
2022/02/14 00:10:02;;;;;;;2.60;2.20;;;;;;;;;;5035511;28;20508;-81
2022/02/14 00:12:31;;;;;;;2.13;1.95;;;;;;;;;;5035339;28;20202;-81
2022/02/14 00:14:58;;;;;;;2.33;2.13;;;;;;;;;;5035419;28;20587;-81
2022/02/14 00:17:26;;;;;;;4.13;2.53;;;;;;;;;;5034800;28;20241;-81
2022/02/14 00:19:53;;;;;;;2.22;2.03;;;;;;;;;;5034293;28;20226;-81
2022/02/14 00:22:22;;;;;;;3.90;2.40;;;;;;;;;;5034917;28;20217;-82
2022/02/14 00:24:50;;;;;;;3.40;2.40;;;;;;;;;;5035271;28;20593;-81
2022/02/14 00:27:19;;;;;;;2.53;2.33;;;;;;;;;;5035234;28;20272;-81
2022/02/14 00:29:48;;;;;;;6.90;2.67;;;;;;;;;;5035285;28;20203;-81
2022/02/14 00:32:15;;;;;;;2.15;1.92;;;;;;;;;;5034845;28;20293;-81
2022/02/14 00:34:43;;;;;;;2.58;2.42;;;;;;;;;;5034478;28;20241;-81
2022/02/14 00:37:12;;;;;;;3.72;2.70;;;;;;;;;;5034690;28;20237;-81
2022/02/14 00:39:39;;;;;;;2.55;1.73;;;;;;;;;;5034760;28;20225;-82
2022/02/14 00:42:07;;;;;;;3.00;2.28;;;;;;;;;;5034087;28;20698;-81
2022/02/14 00:44:34;;;;;;;2.30;2.10;;;;;;;;;;5034423;28;20202;-81
2022/02/14 00:47:04;;;;;;;2.72;2.30;;;;;;;;;;5034323;28;20272;-81
2022/02/14 00:49:31;;;;;;;2.58;2.40;;;;;;;;;;5034457;28;20210;-81
2022/02/14 00:51:59;;;;;;;2.30;1.83;;;;;;;;;;5034397;28;20283;-81
2022/02/14 00:54:26;;;;;;;2.55;2.35;;;;;;;;;;5034558;28;20198;-81
2022/02/14 00:56:53;;;;;;;4.38;2.25;;;;;;;;;;5034381;28;20233;-81
2022/02/14 00:59:21;;;;;;;2.38;2.17;;;;;;;;;;5033747;28;20230;-81
2022/02/14 01:01:49;;;;;;;2.72;2.53;;;;;;;;;;5033646;28;20205;-81
2022/02/14 01:04:18;;;;;;;2.17;2.05;;;;;;;;;;5034492;28;20206;-81
2022/02/14 01:06:45;;;;;;;2.20;2.00;;;;;;;;;;5033974;28;20268;-81
2022/02/14 01:09:13;;;;;;;2.65;2.45;;;;;;;;;;5033736;28;20202;-81
2022/02/14 01:11:41;;;;;;;3.05;2.38;;;;;;;;;;5034158;28;20678;-81
2022/02/14 01:14:08;;;;;;;2.35;2.15;;;;;;;;;;5034430;28;20209;-81
2022/02/14 01:16:36;;;;;;;1.80;1.60;;;;;;;;;;5037778;28;20226;-81
2022/02/14 01:19:03;;;;;;;2.25;2.05;;;;;;;;;;5037593;28;20222;-81
2022/02/14 01:21:32;;;;;;;2.47;2.28;;;;;;;;;;5037775;28;20612;-81
2022/02/14 01:24:00;;;;;;;2.92;1.98;;;;;;;;;;5037705;28;20202;-81
2022/02/14 01:26:27;;;;;;;5.38;2.38;;;;;;;;;;5037392;28;20226;-81
2022/02/14 01:28:54;;;;;;;2.50;2.30;;;;;;;;;;5037897;28;20206;-81
2022/02/14 01:31:21;;;;;;;1.85;1.75;;;;;;;;;;5037734;28;20273;-81
2022/02/14 01:33:49;;;;;;;2.95;1.67;;;;;;;;;;5037970;28;20201;-82
2022/02/14 01:36:16;;;;;;;1.85;1.75;;;;;;;;;;5037233;28;20226;-81
2022/02/14 01:38:45;;;;;;;1.80;1.70;;;;;;;;;;5037557;28;20233;-81
2022/02/14 01:41:12;;;;;;;2.20;2.00;;;;;;;;;;5037730;28;20202;-81
2022/02/14 01:43:40;;;;;;;2.13;2.03;;;;;;;;;;5038181;28;20256;-82
2022/02/14 01:46:07;;;;;;;2.85;2.28;;;;;;;;;;5037986;28;20597;-82
2022/02/14 01:48:35;;;;;;;1.80;1.70;;;;;;;;;;5038346;28;20203;-81
2022/02/14 01:51:03;;;;;;;3.97;2.53;;;;;;;;;;5036665;28;20272;-82
2022/02/14 01:53:30;;;;;;;1.75;1.65;;;;;;;;;;5037028;28;20288;-81
2022/02/14 01:55:59;;;;;;;2.40;2.20;;;;;;;;;;5037093;28;20222;-81
2022/02/14 01:58:27;;;;;;;2.60;2.03;;;;;;;;;;5037243;28;20240;-82
2022/02/14 02:00:54;;;;;;;2.47;2.05;;;;;;;;;;5037577;28;20465;-82
2022/02/14 02:03:24;;;;;;;2.50;2.30;;;;;;;;;;5037661;28;20658;-82
2022/02/14 02:05:52;;;;;;;2.33;1.90;;;;;;;;;;5037205;28;20265;-81
2022/02/14 02:08:19;;;;;;;2.17;1.98;;;;;;;;;;5037564;28;20205;-82
2022/02/14 02:10:47;;;;;;;2.08;1.88;;;;;;;;;;5036563;28;20633;-82
2022/02/14 02:13:16;;;;;;;3.28;2.20;;;;;;;;;;5036624;28;20264;-82
2022/02/14 02:15:44;;;;;;;2.17;1.98;;;;;;;;;;5036886;28;20226;-82
2022/02/14 02:18:11;;;;;;;3.10;2.55;;;;;;;;;;5036583;28;20570;-82
2022/02/14 02:20:39;;;;;;;2.55;1.90;;;;;;;;;;5036717;28;20329;-81
2022/02/14 02:23:06;;;;;;;2.40;2.20;;;;;;;;;;5036562;28;20717;-81
2022/02/14 02:25:35;;;;;;;2.42;2.22;;;;;;;;;;5036366;28;20225;-82
2022/02/14 02:28:03;;;;;;;2.30;2.13;;;;;;;;;;5036593;28;20198;-82
2022/02/14 02:30:30;;;;;;;3.38;2.40;;;;;;;;;;5036411;28;20202;-82
2022/02/14 02:32:57;;;;;;;2.88;2.20;;;;;;;;;;5036109;28;20206;-82
2022/02/14 02:35:25;;;;;;;3.35;2.10;;;;;;;;;;5036356;28;20206;-81
2022/02/14 02:37:52;;;;;;;1.73;1.63;;;;;;;;;;5036797;28;20210;-82
2022/02/14 02:40:19;;;;;;;2.10;1.88;;;;;;;;;;5036358;28;20226;-81
2022/02/14 02:42:48;;;;;;;2.72;1.83;;;;;;;;;;5036334;28;20202;-81
2022/02/14 02:45:15;;;;;;;2.08;1.80;;;;;;;;;;5035965;28;20244;-81
2022/02/14 02:47:42;;;;;;;1.90;1.80;;;;;;;;;;5036387;28;20206;-82
2022/02/14 02:50:10;;;;;;;1.85;1.75;;;;;;;;;;5035811;28;20614;-82
2022/02/14 02:52:37;;;;;;;1.98;1.77;;;;;;;;;;5036232;28;20198;-81
2022/02/14 02:55:05;;;;;;;4.20;1.73;;;;;;;;;;5036339;28;20199;-82
2022/02/14 02:57:33;;;;;;;2.47;2.22;;;;;;;;;;5036434;28;20717;-82
2022/02/14 03:00:01;;;;;;;3.17;2.20;;;;;;;;;;5036059;28;20644;-82
2022/02/14 03:02:28;;;;;;;2.40;2.20;;;;;;;;;;5035473;28;20214;-82
2022/02/14 03:04:56;;;;;;;2.00;1.83;;;;;;;;;;5035814;28;20206;-81
2022/02/14 03:07:23;;;;;;;2.88;2.20;;;;;;;;;;5036249;28;20899;-81
2022/02/14 03:09:50;;;;;;;2.72;2.47;;;;;;;;;;5035714;28;20206;-81
2022/02/14 03:12:17;;;;;;;2.30;1.80;;;;;;;;;;5035786;28;20206;-81
2022/02/14 03:14:45;;;;;;;4.55;2.45;;;;;;;;;;5035933;28;20207;-81
2022/02/14 03:17:13;;;;;;;2.75;2.10;;;;;;;;;;5035576;28;20725;-81
2022/02/14 03:19:41;;;;;;;2.10;1.98;;;;;;;;;;5034989;28;20207;-81
2022/02/14 03:22:08;;;;;;;4.15;2.47;;;;;;;;;;5035406;28;20202;-82
2022/02/14 03:24:35;;;;;;;4.78;1.73;;;;;;;;;;5035407;28;20252;-81
2022/02/14 03:27:04;;;;;;;2.78;2.42;;;;;;;;;;5035477;28;20671;-82
2022/02/14 03:29:31;;;;;;;3.63;2.25;;;;;;;;;;5035640;28;20210;-83
2022/02/14 03:31:58;;;;;;;3.88;2.60;;;;;;;;;;5035441;28;20225;-81
2022/02/14 03:34:27;;;;;;;2.08;1.88;;;;;;;;;;5035082;28;20827;-81
2022/02/14 03:36:54;;;;;;;2.42;1.77;;;;;;;;;;5034896;28;20230;-81
2022/02/14 03:39:22;;;;;;;2.53;1.95;;;;;;;;;;5035550;28;20198;-82
2022/02/14 03:41:49;;;;;;;2.33;2.03;;;;;;;;;;5034870;28;20218;-81
2022/02/14 03:44:16;;;;;;;2.25;2.15;;;;;;;;;;5034885;28;20206;-81
2022/02/14 03:46:43;;;;;;;1.60;1.50;;;;;;;;;;5034665;28;20230;-81
2022/02/14 03:49:11;;;;;;;2.30;1.80;;;;;;;;;;5035454;28;20203;-81
2022/02/14 03:51:39;;;;;;;2.28;2.08;;;;;;;;;;5034770;28;20735;-81
2022/02/14 03:54:07;;;;;;;2.25;1.90;;;;;;;;;;5034891;28;20206;-81
2022/02/14 03:56:34;;;;;;;1.85;1.58;;;;;;;;;;5034288;28;20222;-81
2022/02/14 03:59:01;;;;;;;2.83;2.03;;;;;;;;;;5034317;28;20206;-81
2022/02/14 04:01:29;;;;;;;2.75;2.50;;;;;;;;;;5034593;28;20276;-81
2022/02/14 04:03:56;;;;;;;2.00;1.80;;;;;;;;;;5034764;28;20206;-81
2022/02/14 04:06:23;;;;;;;3.45;1.80;;;;;;;;;;5034751;28;20233;-81
2022/02/14 04:08:52;;;;;;;3.15;2.28;;;;;;;;;;5034434;28;20678;-82
2022/02/14 04:11:19;;;;;;;4.13;2.35;;;;;;;;;;5034258;28;20198;-81
2022/02/14 04:13:46;;;;;;;2.35;2.15;;;;;;;;;;5034923;28;20211;-81
2022/02/14 04:16:14;;;;;;;2.42;2.15;;;;;;;;;;5034499;28;20226;-82
2022/02/14 04:18:41;;;;;;;2.03;1.83;;;;;;;;;;5034479;28;20287;-81
2022/02/14 04:21:08;;;;;;;3.10;1.80;;;;;;;;;;5034206;28;20225;-82
2022/02/14 04:23:36;;;;;;;2.47;2.00;;;;;;;;;;5034276;28;20232;-82
2022/02/14 04:26:05;;;;;;;2.20;2.00;;;;;;;;;;5034365;28;20226;-81
2022/02/14 04:28:32;;;;;;;2.72;2.53;;;;;;;;;;5034853;28;20198;-82
2022/02/14 04:30:59;;;;;;;2.97;2.65;;;;;;;;;;5034190;28;20564;-81
2022/02/14 04:33:27;;;;;;;1.95;1.85;;;;;;;;;;5034372;28;20206;-81
2022/02/14 04:35:54;;;;;;;1.92;1.50;;;;;;;;;;5034520;28;20682;-81
2022/02/14 04:38:21;;;;;;;2.17;1.98;;;;;;;;;;5034263;28;20206;-81
2022/02/14 04:40:48;;;;;;;1.95;1.75;;;;;;;;;;5034297;28;20670;-81
2022/02/14 04:43:17;;;;;;;3.15;1.83;;;;;;;;;;5034490;28;20206;-81
2022/02/14 04:45:44;;;;;;;2.90;2.20;;;;;;;;;;5033953;28;20729;-81
2022/02/14 04:48:12;;;;;;;2.75;2.08;;;;;;;;;;5034360;28;20209;-82
2022/02/14 04:50:39;;;;;;;2.28;1.50;;;;;;;;;;5033663;28;20620;-81
2022/02/14 04:53:06;;;;;;;1.67;1.55;;;;;;;;;;5034808;28;20205;-82
2022/02/14 04:55:34;;;;;;;2.38;2.17;;;;;;;;;;5034234;28;20721;-81
2022/02/14 04:58:01;;;;;;;1.63;1.50;;;;;;;;;;5033676;28;20206;-81
2022/02/14 05:00:31;;;;;;;1.50;1.40;;;;;;;;;;5033852;28;20631;-82
2022/02/14 05:02:58;;;;;;;1.45;1.38;;;;;;;;;;5035761;28;20261;-81
2022/02/14 05:05:25;;;;;;;2.10;1.90;;;;;;;;;;5037445;28;20202;-82
2022/02/14 05:07:53;;;;;;;1.80;1.65;;;;;;;;;;5037895;28;20666;-81
2022/02/14 05:10:21;;;;;;;2.33;1.65;;;;;;;;;;5037425;28;20666;-82
2022/02/14 05:12:48;;;;;;;1.67;1.58;;;;;;;;;;5035541;28;20205;-81
2022/02/14 05:15:16;;;;;;;2.15;1.67;;;;;;;;;;5034500;28;20674;-82
2022/02/14 05:17:45;;;;;;;2.22;2.03;;;;;;;;;;5034848;28;20202;-81
2022/02/14 05:20:13;;;;;;;3.05;2.10;;;;;;;;;;5034880;28;20202;-82
2022/02/14 05:22:40;;;;;;;3.53;2.10;;;;;;;;;;5034735;28;20601;-81
2022/02/14 05:25:10;;;;;;;2.55;2.20;;;;;;;;;;5033868;28;20209;-81
2022/02/14 05:27:38;;;;;;;1.70;1.50;;;;;;;;;;5034872;28;20202;-82
2022/02/14 05:30:06;;;;;;;3.30;1.80;;;;;;;;;;5034284;28;20210;-81
2022/02/14 05:32:34;;;;;;;1.75;1.65;;;;;;;;;;5034736;28;20225;-81
2022/02/14 05:35:02;;;;;;;2.47;2.28;;;;;;;;;;5034546;28;20203;-81
2022/02/14 05:37:30;;;;;;;2.00;1.50;;;;;;;;;;5034534;28;20229;-81
2022/02/14 05:39:57;;;;;;;2.28;1.67;;;;;;;;;;5035051;28;20206;-81
2022/02/14 05:42:26;;;;;;;3.15;2.45;;;;;;;;;;5034388;28;20226;-81
2022/02/14 05:44:53;;;;;;;2.40;1.95;;;;;;;;;;5034925;28;20206;-81
2022/02/14 05:47:20;;;;;;;2.03;1.88;;;;;;;;;;5040104;28;20229;-81
2022/02/14 05:49:48;;;;;;;2.42;2.00;;;;;;;;;;5042794;28;20199;-81
2022/02/14 05:52:16;;;;;;;2.60;2.00;;;;;;;;;;5041772;28;20256;-82
2022/02/14 05:54:44;;;;;;;2.50;1.67;;;;;;;;;;5042260;28;20647;-80
2022/02/14 05:57:11;;;;;;;2.15;2.00;;;;;;;;;;5043016;28;20230;-82
2022/02/14 05:59:39;;;;;;;2.30;2.10;;;;;;;;;;5041286;28;20217;-82
2022/02/14 06:02:06;;;;;;;2.65;2.17;;;;;;;;;;5045144;28;20226;-81
2022/02/14 06:04:34;;;;;;;2.92;1.85;;;;;;;;;;5046513;28;20202;-80
2022/02/14 06:07:01;;;;;;;2.63;2.00;;;;;;;;;;5044959;28;20714;-81
2022/02/14 06:09:30;;;;;;;2.00;1.90;;;;;;;;;;5045432;28;20210;-82
2022/02/14 06:11:57;;;;;;;1.80;1.70;;;;;;;;;;5045077;28;20667;-81
2022/02/14 06:14:25;;;;;;;2.78;2.30;;;;;;;;;;5044551;28;20266;-82
2022/02/14 06:16:53;;;;;;;3.17;2.58;;;;;;;;;;5044171;28;20233;-83
2022/02/14 06:19:21;;;;;;;1.98;1.75;;;;;;;;;;5045238;28;20339;-81
2022/02/14 06:21:48;;;;;;;2.97;2.25;;;;;;;;;;5045911;28;20194;-80
2022/02/14 06:24:16;;;;;;;3.28;2.38;;;;;;;;;;5044148;28;20202;-81
2022/02/14 06:26:45;;;;;;;2.60;2.15;;;;;;;;;;5045292;28;20214;-80
2022/02/14 06:29:13;;;;;;;2.50;2.30;;;;;;;;;;5043812;28;20214;-80
2022/02/14 06:31:40;;;;;;;2.13;2.03;;;;;;;;;;5043665;28;20209;-79
2022/02/14 06:34:07;;;;;;;2.40;1.85;;;;;;;;;;5043422;28;20264;-81
2022/02/14 06:36:34;;;;;;;3.85;2.42;;;;;;;;;;5043141;28;20225;-80
2022/02/14 06:39:03;;;;;;;2.67;2.40;;;;;;;;;;5041857;28;20209;-82
2022/02/14 06:41:31;;;;;;;2.35;2.15;;;;;;;;;;5044962;28;20214;-80
2022/02/14 06:43:59;;;;;;;2.65;2.33;;;;;;;;;;5042186;28;20226;-81
2022/02/14 06:46:26;;;;;;;4.43;2.35;;;;;;;;;;5044278;28;20233;-82
2022/02/14 06:48:54;;;;;;;2.40;2.20;;;;;;;;;;5040445;28;20202;-82
2022/02/14 06:51:21;;;;;;;2.30;1.90;;;;;;;;;;5042985;28;20202;-81
2022/02/14 06:53:48;;;;;;;4.60;2.38;;;;;;;;;;5042006;28;20198;-82
2022/02/14 06:56:18;;;;;;;4.13;2.63;;;;;;;;;;5043486;28;20276;-82
2022/02/14 06:58:45;;;;;;;2.53;2.33;;;;;;;;;;5044623;28;20724;-81
2022/02/14 07:01:14;;;;;;;3.38;2.22;;;;;;;;;;5025547;28;20203;-82
2022/02/14 07:03:42;;;;;;;2.53;2.33;;;;;;;;;;5023458;28;20222;-81
2022/02/14 07:06:09;;;;;;;2.20;2.00;;;;;;;;;;5025166;28;20927;-81
2022/02/14 07:08:37;;;;;;;2.58;1.90;;;;;;;;;;5022712;28;20242;-81
2022/02/14 07:11:04;;;;;;;3.30;2.05;;;;;;;;;;5023975;28;20210;-81
2022/02/14 07:13:32;;;;;;;2.22;2.00;;;;;;;;;;5022574;28;20203;-81
2022/02/14 07:15:59;;;;;;;2.08;1.98;;;;;;;;;;5024780;28;20800;-81
2022/02/14 07:18:30;;;;;;;2.35;1.77;;;;;;;;;;5024216;28;20215;-82
2022/02/14 07:20:57;;;;;;;2.40;1.90;;;;;;;;;;5024649;28;20649;-80
2022/02/14 07:23:24;;;;;;;2.35;1.98;;;;;;;;;;5021855;28;20222;-82
2022/02/14 07:25:52;;;;;;;3.58;1.92;;;;;;;;;;5023442;28;20315;-82
2022/02/14 07:28:20;;;;;;;2.03;1.88;;;;;;;;;;5022688;28;20230;-81
2022/02/14 07:30:47;;;;;;;1.92;1.77;;;;;;;;;;5039037;28;20629;-82
2022/02/14 07:33:14;;;;;;;2.28;2.00;;;;;;;;;;5043497;28;20658;-82
2022/02/14 07:35:43;;;;;;;2.67;2.20;;;;;;;;;;5043716;28;20757;-82
2022/02/14 07:38:10;;;;;;;2.33;1.88;;;;;;;;;;5042036;28;20203;-81
2022/02/14 07:40:38;;;;;;;1.95;1.77;;;;;;;;;;5043370;28;20203;-82
2022/02/14 07:43:05;;;;;;;2.30;1.85;;;;;;;;;;5041762;28;20278;-81
2022/02/14 07:45:33;;;;;;;2.50;2.30;;;;;;;;;;5043561;28;20688;-82
2022/02/14 07:48:01;;;;;;;2.55;1.90;;;;;;;;;;5045289;28;20206;-81
2022/02/14 07:50:28;;;;;;;2.53;1.48;;;;;;;;;;5046024;28;20213;-81
2022/02/14 07:52:57;;;;;;;1.70;1.60;;;;;;;;;;5044709;28;20194;-81
2022/02/14 07:55:25;;;;;;;2.30;2.03;;;;;;;;;;5044558;28;20209;-82
2022/02/14 07:57:52;;;;;;;1.83;1.73;;;;;;;;;;5044548;28;20208;-82
2022/02/14 08:00:22;;;;;;;3.00;1.98;;;;;;;;;;5044631;28;20710;-82
2022/02/14 08:02:49;;;;;;;2.30;2.10;;;;;;;;;;5042614;28;20261;-82
2022/02/14 08:05:17;;;;;;;2.45;2.25;;;;;;;;;;5041422;28;20217;-80
2022/02/14 08:07:44;;;;;;;1.67;1.58;;;;;;;;;;5043483;28;20629;-81
2022/02/14 08:10:13;;;;;;;1.73;1.50;;;;;;;;;;5044755;28;20213;-81
2022/02/14 08:12:40;;;;;;;2.03;1.83;;;;;;;;;;5042153;28;20210;-82
2022/02/14 08:15:08;;;;;;;1.95;1.75;;;;;;;;;;5044149;28;20206;-81
2022/02/14 08:17:36;;;;;;;2.30;1.80;;;;;;;;;;5043450;28;20210;-82
2022/02/14 08:20:05;;;;;;;2.10;1.83;;;;;;;;;;5043927;28;20238;-82
2022/02/14 08:22:33;;;;;;;2.40;1.98;;;;;;;;;;5042690;28;20214;-80
2022/02/14 08:25:00;;;;;;;4.18;2.17;;;;;;;;;;5043487;28;20229;-82
2022/02/14 08:27:29;;;;;;;1.70;1.60;;;;;;;;;;5043050;28;20653;-80
2022/02/14 08:29:57;;;;;;;2.92;1.98;;;;;;;;;;5043326;28;20203;-82
2022/02/14 08:32:24;;;;;;;2.00;1.55;;;;;;;;;;5043495;28;20222;-82
2022/02/14 08:34:52;;;;;;;2.53;1.80;;;;;;;;;;5043311;28;20256;-80
2022/02/14 08:37:19;;;;;;;2.72;1.95;;;;;;;;;;5043446;28;20226;-81
2022/02/14 08:39:46;;;;;;;3.00;1.85;;;;;;;;;;5043306;28;20611;-82
2022/02/14 08:42:14;;;;;;;1.70;1.60;;;;;;;;;;5041730;28;20202;-82
2022/02/14 08:44:42;;;;;;;3.78;2.33;;;;;;;;;;5043831;28;20226;-82
2022/02/14 08:47:10;;;;;;;1.92;1.80;;;;;;;;;;5043186;28;20226;-81
2022/02/14 08:49:37;;;;;;;3.28;2.25;;;;;;;;;;5043727;28;20229;-82
2022/02/14 08:52:05;;;;;;;3.50;1.98;;;;;;;;;;5043137;28;20243;-81
2022/02/14 08:54:33;;;;;;;2.00;1.90;;;;;;;;;;5043695;28;20666;-81
2022/02/14 08:57:00;;;;;;;3.53;1.83;;;;;;;;;;5044058;28;20222;-81
2022/02/14 08:59:28;;;;;;;2.10;1.85;;;;;;;;;;5043938;28;20213;-82
2022/02/14 09:01:59;;;;;;;1.80;1.70;;;;;;;;;;5042619;28;20678;-81
2022/02/14 09:04:26;;;;;;;2.35;2.15;;;;;;;;;;5042037;28;20608;-81
2022/02/14 09:06:53;;;;;;;7.15;2.10;;;;;;;;;;5042888;28;20737;-82
2022/02/14 09:09:21;;;;;;;1.92;1.70;;;;;;;;;;5042736;28;20647;-81
2022/02/14 09:11:48;;;;;;;2.45;2.22;;;;;;;;;;5043379;28;20236;-82
2022/02/14 09:14:15;;;;;;;1.90;1.80;;;;;;;;;;5044288;28;20202;-81
2022/02/14 09:16:43;;;;;;;2.95;2.13;;;;;;;;;;5043657;28;20301;-82
2022/02/14 09:19:12;;;;;;;2.30;1.80;;;;;;;;;;5041627;28;20206;-81
2022/02/14 09:21:42;;;;;;;4.00;2.10;;;;;;;;;;5042134;28;20256;-81
2022/02/14 09:24:12;;;;;;;2.13;1.50;;;;;;;;;;5040297;28;20228;-81
2022/02/14 09:26:40;;;;;;;2.03;1.88;;;;;;;;;;5042063;28;20225;-84
2022/02/14 09:29:08;;;;;;;2.10;1.90;;;;;;;;;;5040701;28;20300;-82
2022/02/14 09:31:37;;;;;;;1.80;1.70;;;;;;;;;;5040256;28;20226;-81
2022/02/14 09:34:04;;;;;;;3.05;2.05;;;;;;;;;;5041028;28;20198;-81
2022/02/14 09:36:33;;;;;;;2.35;2.08;;;;;;;;;;5044976;28;20604;-81
2022/02/14 09:39:01;;;;;;;3.00;2.45;;;;;;;;;;5044057;28;20209;-81
2022/02/14 09:41:29;;;;;;;2.00;1.42;;;;;;;;;;5046143;28;20206;-80
2022/02/14 09:43:57;;;;;;;2.63;2.10;;;;;;;;;;5043506;28;20734;-82
2022/02/14 09:46:24;;;;;;;1.98;1.67;;;;;;;;;;5046425;28;20228;-82
2022/02/14 09:48:51;;;;;;;2.58;1.90;;;;;;;;;;5045616;28;20625;-84
2022/02/14 09:51:19;;;;;;;3.05;2.28;;;;;;;;;;5046096;28;20205;-82
2022/02/14 09:53:48;;;;;;;2.28;2.05;;;;;;;;;;5046552;28;20207;-82
2022/02/14 09:56:15;;;;;;;1.88;1.73;;;;;;;;;;5045379;28;20245;-82
2022/02/14 09:58:42;;;;;;;2.03;1.85;;;;;;;;;;5044949;28;20217;-83
2022/02/14 10:01:10;;;;;;;4.07;2.47;;;;;;;;;;5047403;28;20229;-83
2022/02/14 10:03:37;;;;;;;1.90;1.80;;;;;;;;;;5046034;28;20236;-83
2022/02/14 10:06:05;;;;;;;2.45;1.90;;;;;;;;;;5046559;28;20230;-82
2022/02/14 10:08:35;;;;;;;2.97;2.15;;;;;;;;;;5046661;28;20286;-83
2022/02/14 10:11:15;;;;;;;4.50;2.55;;;;;;;;;;5046829;28;20758;-83
2022/02/14 10:13:43;;;;;;;4.20;2.17;;;;;;;;;;5044435;28;20202;-82
2022/02/14 10:16:13;;;;;;;2.20;1.80;;;;;;;;;;5045415;28;20587;-84
2022/02/14 10:18:43;;;;;;;2.70;2.50;;;;;;;;;;5047336;28;20661;-83
2022/02/14 10:21:23;;;;;;;2.38;1.65;;;;;;;;;;5046341;28;20202;-83
2022/02/14 10:24:07;;;;;;;1.50;1.40;;;;;;;;;;5045426;28;20202;-83
2022/02/14 10:26:37;;;;;;;2.25;2.05;;;;;;;;;;5045051;28;20309;-84
2022/02/14 10:29:14;;;;;;;2.47;2.00;;;;;;;;;;5045932;28;20206;-83
2022/02/14 10:31:44;;;;;;;3.45;1.70;;;;;;;;;;5044057;28;20202;-84
2022/02/14 10:34:12;;;;;;;2.20;1.92;;;;;;;;;;5045030;28;20202;-82
2022/02/14 10:36:42;;;;;;;2.63;2.20;;;;;;;;;;5044837;28;20223;-83
2022/02/14 10:39:12;;;;;;;1.83;1.70;;;;;;;;;;5043215;28;20592;-83
2022/02/14 10:41:42;;;;;;;1.70;1.60;;;;;;;;;;5044962;28;20591;-84
2022/02/14 10:44:14;;;;;;;1.80;1.70;;;;;;;;;;5044966;28;20209;-82
2022/02/14 10:46:42;;;;;;;1.85;1.70;;;;;;;;;;5045217;28;20223;-82
2022/02/14 10:49:10;;;;;;;2.53;1.40;;;;;;;;;;5044286;28;20206;-83
2022/02/14 10:51:38;;;;;;;1.85;1.75;;;;;;;;;;5045809;28;20203;-84
2022/02/14 10:54:06;;;;;;;2.78;1.98;;;;;;;;;;5045072;28;20228;-83
2022/02/14 10:56:41;;;;;;;2.13;1.92;;;;;;;;;;5046442;28;20228;-85
2022/02/14 10:59:19;;;;;;;2.30;2.10;;;;;;;;;;5045376;28;20210;-85
2022/02/14 11:01:46;;;;;;;2.40;2.10;;;;;;;;;;5044579;28;20259;-82
2022/02/14 11:04:14;;;;;;;1.83;1.73;;;;;;;;;;5046006;28;20663;-83
2022/02/14 11:06:42;;;;;;;2.38;2.15;;;;;;;;;;5045474;28;20218;-82
2022/02/14 11:09:11;;;;;;;3.33;1.67;;;;;;;;;;5045130;28;20202;-82
2022/02/14 11:11:40;;;;;;;1.48;1.38;;;;;;;;;;5046338;28;20620;-83
2022/02/14 11:14:07;;;;;;;3.30;2.22;;;;;;;;;;5045054;28;20211;-83
2022/02/14 11:16:38;;;;;;;2.47;1.63;;;;;;;;;;5044150;28;20268;-83
2022/02/14 11:19:09;;;;;;;2.42;1.85;;;;;;;;;;5045509;28;20206;-83
2022/02/14 11:21:37;;;;;;;2.28;2.08;;;;;;;;;;5044104;28;20300;-82
2022/02/14 11:24:21;;;;;;;3.17;1.80;;;;;;;;;;5046115;28;20210;-82
2022/02/14 11:26:57;;;;;;;2.83;1.85;;;;;;;;;;5044745;28;20284;-83
2022/02/14 11:29:51;;;;;;;2.25;2.05;;;;;;;;;;5045392;28;20593;-82
2022/02/14 11:32:26;;;;;;;2.42;2.15;;;;;;;;;;5045162;28;20234;-83
2022/02/14 11:35:02;;;;;;;2.15;1.90;;;;;;;;;;5045758;28;20205;-82
2022/02/14 11:37:56;;;;;;;2.75;2.33;;;;;;;;;;5044051;28;20241;-82
2022/02/14 11:40:36;;;;;;;2.00;1.77;;;;;;;;;;5045942;28;20214;-81
2022/02/14 11:43:18;;;;;;;2.58;2.03;;;;;;;;;;5045766;28;20266;-83
2022/02/14 11:46:06;;;;;;;3.95;1.95;;;;;;;;;;5045418;28;20226;-83
2022/02/14 11:48:33;;;;;;;4.07;1.90;;;;;;;;;;5046476;28;20257;-84
2022/02/14 11:51:09;;;;;;;1.60;1.45;;;;;;;;;;5047513;28;20206;-84
2022/02/14 11:53:41;;;;;;;3.13;1.88;;;;;;;;;;5048094;28;20206;-83
2022/02/14 11:56:29;;;;;;;2.58;1.60;;;;;;;;;;5049074;28;20588;-83
2022/02/14 11:59:12;;;;;;;1.77;1.67;;;;;;;;;;5047481;28;20663;-83
2022/02/14 12:02:02;;;;;;;2.78;1.70;;;;;;;;;;5047038;28;20210;-83
2022/02/14 12:04:48;;;;;;;3.85;2.20;;;;;;;;;;5047425;28;20584;-85
2022/02/14 12:07:33;;;;;;;3.13;1.95;;;;;;;;;;5046073;28;20814;-83
2022/02/14 12:10:26;;;;;;;3.22;1.90;;;;;;;;;;5046427;28;20202;-84
2022/02/14 12:13:13;;;;;;;2.28;1.85;;;;;;;;;;5044493;28;20209;-83
2022/02/14 12:21:43;;;;;;;1.70;1.60;;;;;;;;;;5045187;28;20272;-84
2022/02/14 12:24:20;;;;;;;2.05;1.73;;;;;;;;;;5044860;28;20198;-85
2022/02/14 12:26:55;;;;;;;1.65;1.55;;;;;;;;;;5043354;28;20233;-83
2022/02/14 12:29:39;;;;;;;2.08;1.70;;;;;;;;;;5044302;28;20211;-84
2022/02/14 12:32:18;;;;;;;4.43;2.70;;;;;;;;;;5043785;28;20202;-84
2022/02/14 12:34:46;;;;;;;2.40;1.67;;;;;;;;;;5045201;28;20229;-84
2022/02/14 12:37:17;;;;;;;1.52;1.42;;;;;;;;;;5044759;28;20215;-83
2022/02/14 12:39:48;;;;;;;2.05;1.70;;;;;;;;;;5044867;28;20198;-83
2022/02/14 12:42:20;;;;;;;2.53;1.55;;;;;;;;;;5043849;28;20265;-85
2022/02/14 12:44:48;;;;;;;1.70;1.60;;;;;;;;;;5044782;28;20238;-83
2022/02/14 12:47:19;;;;;;;2.13;2.00;;;;;;;;;;5044735;28;20261;-84
2022/02/14 12:50:06;;;;;;;2.10;1.70;;;;;;;;;;5044107;28;20206;-83
2022/02/14 12:52:33;;;;;;;1.65;1.55;;;;;;;;;;5044677;28;20209;-84
2022/02/14 12:55:02;;;;;;;2.28;1.63;;;;;;;;;;5044169;28;20305;-83
2022/02/14 12:57:45;;;;;;;3.75;1.65;;;;;;;;;;5044179;28;20325;-84
2022/02/14 13:00:28;;;;;;;3.53;2.13;;;;;;;;;;5044701;28;20201;-84
2022/02/14 13:02:59;;;;;;;1.98;1.77;;;;;;;;;;5038765;28;20293;-84
2022/02/14 13:05:27;;;;;;;2.00;1.90;;;;;;;;;;5044648;28;20297;-83
2022/02/14 13:07:55;;;;;;;2.08;1.90;;;;;;;;;;5044445;28;20210;-84
2022/02/14 13:10:23;;;;;;;2.58;2.05;;;;;;;;;;5044933;28;20202;-83
2022/02/14 13:12:58;;;;;;;1.58;1.40;;;;;;;;;;5043935;28;20678;-83
2022/02/14 13:15:26;;;;;;;2.05;1.85;;;;;;;;;;5045906;28;20705;-83
2022/02/14 13:17:53;;;;;;;1.70;1.60;;;;;;;;;;5045558;28;20239;-83
2022/02/14 13:20:22;;;;;;;2.22;2.00;;;;;;;;;;5045601;28;20226;-83
2022/02/14 13:22:49;;;;;;;1.70;1.60;;;;;;;;;;5044594;28;20202;-83
2022/02/14 13:25:25;;;;;;;1.60;1.40;;;;;;;;;;5045418;28;20236;-83
2022/02/14 13:27:56;;;;;;;1.80;1.70;;;;;;;;;;5044680;28;20243;-84
2022/02/14 13:30:26;;;;;;;2.13;1.80;;;;;;;;;;5045472;28;20269;-83
2022/02/14 13:32:54;;;;;;;1.85;1.75;;;;;;;;;;5044678;28;20206;-84
2022/02/14 13:35:26;;;;;;;1.70;1.30;;;;;;;;;;5045334;28;20293;-83
2022/02/14 13:37:56;;;;;;;1.75;1.42;;;;;;;;;;5045407;28;20256;-83
2022/02/14 13:40:28;;;;;;;3.17;2.03;;;;;;;;;;5044768;28;20202;-82
2022/02/14 13:42:58;;;;;;;3.92;2.28;;;;;;;;;;5044645;28;20203;-82
2022/02/14 13:45:26;;;;;;;2.95;2.00;;;;;;;;;;5044863;28;20202;-84
2022/02/14 13:48:18;;;;;;;1.88;1.70;;;;;;;;;;5044868;28;20233;-85
2022/02/14 13:50:49;;;;;;;2.50;1.75;;;;;;;;;;5044856;28;20198;-83
2022/02/14 13:53:27;;;;;;;2.60;1.80;;;;;;;;;;5044215;28;20210;-83
2022/02/14 13:56:10;;;;;;;1.55;1.38;;;;;;;;;;5044410;28;20232;-84
2022/02/14 13:58:41;;;;;;;2.67;1.70;;;;;;;;;;5044775;28;20210;-83
2022/02/14 14:01:24;;;;;;;2.53;1.48;;;;;;;;;;5044791;28;20249;-83
2022/02/14 14:03:54;;;;;;;1.73;1.63;;;;;;;;;;5044081;28;20252;-83
2022/02/14 14:06:26;;;;;;;1.40;1.30;;;;;;;;;;5043914;28;20230;-83
2022/02/14 14:08:55;;;;;;;1.20;1.20;;;;;;;;;;5043917;28;20238;-82
2022/02/14 14:11:28;;;;;;;1.83;1.60;;;;;;;;;;5044016;28;20206;-83
2022/02/14 14:13:55;;;;;;;3.40;1.95;;;;;;;;;;5045094;28;20577;-83
2022/02/14 14:16:23;;;;;;;1.85;1.75;;;;;;;;;;5043708;28;20223;-82
2022/02/14 14:18:50;;;;;;;1.65;1.40;;;;;;;;;;5045231;28;20218;-84
2022/02/14 14:21:18;;;;;;;3.28;1.73;;;;;;;;;;5044750;28;20207;-83
2022/02/14 14:23:50;;;;;;;1.75;1.17;;;;;;;;;;5048565;28;20202;-83
2022/02/14 14:26:20;;;;;;;1.83;1.70;;;;;;;;;;5048394;28;20242;-83
2022/02/14 14:28:48;;;;;;;1.58;1.50;;;;;;;;;;5048069;28;20212;-82
2022/02/14 14:31:16;;;;;;;1.50;1.40;;;;;;;;;;5047211;28;20245;-83
2022/02/14 14:33:44;;;;;;;2.60;1.30;;;;;;;;;;5047184;28;20202;-83
2022/02/14 14:36:11;;;;;;;1.27;1.05;;;;;;;;;;5046744;28;20227;-83
2022/02/14 14:38:41;;;;;;;1.60;1.50;;;;;;;;;;5045953;28;20198;-84
2022/02/14 14:41:09;;;;;;;2.65;2.00;;;;;;;;;;5047627;28;20662;-83
2022/02/14 14:43:37;;;;;;;2.42;1.75;;;;;;;;;;5045644;28;20289;-84
2022/02/14 14:46:05;;;;;;;1.70;1.60;;;;;;;;;;5046358;28;20221;-83
2022/02/14 14:48:32;;;;;;;1.92;1.52;;;;;;;;;;5046216;28;20725;-83
2022/02/14 14:51:00;;;;;;;1.73;1.63;;;;;;;;;;5046553;28;20214;-83
2022/02/14 14:53:27;;;;;;;3.60;1.75;;;;;;;;;;5046883;28;20295;-82
2022/02/14 14:55:54;;;;;;;1.45;1.27;;;;;;;;;;5047089;28;20222;-83
2022/02/14 14:58:23;;;;;;;1.55;1.45;;;;;;;;;;5046183;28;20199;-83
2022/02/14 15:00:50;;;;;;;2.22;1.75;;;;;;;;;;5046179;28;20202;-82